sensor_id;sensor_type;location;lat;lon;timestamp;pressure;altitude;pressure_sealevel;temperature;humidity
29121;BME280;16191;49.548;8.658;2022-10-16T00:01:23;100116.06;;;15.81;100.00
29121;BME280;16191;49.548;8.658;2022-10-16T00:03:51;100124.94;;;15.80;100.00
29121;BME280;16191;49.548;8.658;2022-10-16T00:06:20;100128.38;;;15.81;100.00
29121;BME280;16191;49.548;8.658;2022-10-16T00:08:47;100128.50;;;15.79;100.00
29121;BME280;16191;49.548;8.658;2022-10-16T00:11:17;100121.44;;;15.80;100.00
29121;BME280;16191;49.548;8.658;2022-10-16T00:13:47;100122.91;;;15.84;100.00
29121;BME280;16191;49.548;8.658;2022-10-16T00:16:15;100117.47;;;15.87;100.00
29121;BME280;16191;49.548;8.658;2022-10-16T00:18:42;100124.59;;;15.85;100.00
29121;BME280;16191;49.548;8.658;2022-10-16T00:21:11;100119.97;;;15.75;100.00
29121;BME280;16191;49.548;8.658;2022-10-16T00:24:12;100114.50;;;15.79;100.00
29121;BME280;16191;49.548;8.658;2022-10-16T00:26:59;100117.75;;;15.82;100.00
29121;BME280;16191;49.548;8.658;2022-10-16T00:29:50;100121.66;;;15.76;100.00
29121;BME280;16191;49.548;8.658;2022-10-16T00:32:37;100130.47;;;15.75;100.00
29121;BME280;16191;49.548;8.658;2022-10-16T00:35:24;100130.38;;;15.77;100.00
29121;BME280;16191;49.548;8.658;2022-10-16T00:38:10;100122.41;;;15.79;100.00
29121;BME280;16191;49.548;8.658;2022-10-16T00:40:37;100122.16;;;15.82;100.00
29121;BME280;16191;49.548;8.658;2022-10-16T00:43:31;100121.31;;;15.81;100.00
29121;BME280;16191;49.548;8.658;2022-10-16T00:46:00;100123.97;;;15.81;100.00
29121;BME280;16191;49.548;8.658;2022-10-16T00:48:27;100118.91;;;15.78;100.00
29121;BME280;16191;49.548;8.658;2022-10-16T00:50:53;100119.66;;;15.80;100.00
29121;BME280;16191;49.548;8.658;2022-10-16T00:53:21;100105.75;;;15.78;100.00
29121;BME280;16191;49.548;8.658;2022-10-16T00:55:47;100118.38;;;15.73;100.00
29121;BME280;16191;49.548;8.658;2022-10-16T00:58:14;100126.34;;;15.71;100.00
29121;BME280;16191;49.548;8.658;2022-10-16T01:00:40;100135.09;;;15.72;100.00
29121;BME280;16191;49.548;8.658;2022-10-16T01:03:32;100136.13;;;15.69;100.00
29121;BME280;16191;49.548;8.658;2022-10-16T01:08:58;100127.28;;;15.70;100.00
29121;BME280;16191;49.548;8.658;2022-10-16T01:11:45;100123.34;;;15.77;100.00
29121;BME280;16191;49.548;8.658;2022-10-16T01:14:24;100124.38;;;15.75;100.00
29121;BME280;16191;49.548;8.658;2022-10-16T01:17:00;100128.50;;;15.79;100.00
29121;BME280;16191;49.548;8.658;2022-10-16T01:22:25;100117.56;;;15.85;100.00
29121;BME280;16191;49.548;8.658;2022-10-16T01:24:55;100128.84;;;15.87;100.00
29121;BME280;16191;49.548;8.658;2022-10-16T01:27:27;100139.44;;;15.86;100.00
29121;BME280;16191;49.548;8.658;2022-10-16T01:30:04;100132.97;;;15.91;100.00
29121;BME280;16191;49.548;8.658;2022-10-16T01:32:38;100131.38;;;15.89;100.00
29121;BME280;16191;49.548;8.658;2022-10-16T01:35:11;100139.56;;;15.84;100.00
29121;BME280;16191;49.548;8.658;2022-10-16T01:37:46;100138.72;;;15.84;100.00
29121;BME280;16191;49.548;8.658;2022-10-16T01:40:16;100142.28;;;15.83;100.00
29121;BME280;16191;49.548;8.658;2022-10-16T01:42:52;100152.41;;;15.89;100.00
29121;BME280;16191;49.548;8.658;2022-10-16T01:45:20;100156.38;;;15.82;100.00
29121;BME280;16191;49.548;8.658;2022-10-16T01:47:48;100158.81;;;15.85;100.00
29121;BME280;16191;49.548;8.658;2022-10-16T01:50:18;100153.66;;;15.83;100.00
29121;BME280;16191;49.548;8.658;2022-10-16T01:52:49;100157.22;;;15.82;100.00
29121;BME280;16191;49.548;8.658;2022-10-16T01:55:25;100160.06;;;15.79;100.00
29121;BME280;16191;49.548;8.658;2022-10-16T01:57:56;100164.50;;;15.79;100.00
29121;BME280;16191;49.548;8.658;2022-10-16T02:00:25;100160.06;;;15.79;100.00
29121;BME280;16191;49.548;8.658;2022-10-16T02:02:53;100152.81;;;15.83;100.00
29121;BME280;16191;49.548;8.658;2022-10-16T02:05:28;100151.00;;;15.83;100.00
29121;BME280;16191;49.548;8.658;2022-10-16T02:07:57;100149.88;;;15.87;100.00
29121;BME280;16191;49.548;8.658;2022-10-16T02:10:28;100155.44;;;15.83;100.00
29121;BME280;16191;49.548;8.658;2022-10-16T02:13:16;100141.53;;;15.81;100.00
29121;BME280;16191;49.548;8.658;2022-10-16T02:15:43;100142.38;;;15.81;100.00
29121;BME280;16191;49.548;8.658;2022-10-16T02:18:10;100147.63;;;15.81;100.00
29121;BME280;16191;49.548;8.658;2022-10-16T02:26:13;100135.13;;;15.85;100.00
29121;BME280;16191;49.548;8.658;2022-10-16T02:28:45;100137.66;;;15.86;100.00
29121;BME280;16191;49.548;8.658;2022-10-16T02:31:16;100139.44;;;15.86;100.00
29121;BME280;16191;49.548;8.658;2022-10-16T02:33:46;100145.47;;;15.88;100.00
29121;BME280;16191;49.548;8.658;2022-10-16T02:36:15;100140.09;;;15.89;100.00
29121;BME280;16191;49.548;8.658;2022-10-16T02:38:42;100141.69;;;15.92;100.00
29121;BME280;16191;49.548;8.658;2022-10-16T02:41:08;100141.78;;;15.90;100.00
29121;BME280;16191;49.548;8.658;2022-10-16T02:43:35;100143.78;;;15.87;100.00
29121;BME280;16191;49.548;8.658;2022-10-16T02:46:02;100153.47;;;15.86;100.00
29121;BME280;16191;49.548;8.658;2022-10-16T02:48:29;100145.38;;;15.89;100.00
29121;BME280;16191;49.548;8.658;2022-10-16T02:50:55;100142.75;;;15.89;100.00
29121;BME280;16191;49.548;8.658;2022-10-16T02:53:23;100146.41;;;15.87;100.00
29121;BME280;16191;49.548;8.658;2022-10-16T02:55:50;100148.09;;;15.88;100.00
29121;BME280;16191;49.548;8.658;2022-10-16T02:58:16;100147.16;;;15.89;100.00
29121;BME280;16191;49.548;8.658;2022-10-16T03:00:43;100149.13;;;15.85;100.00
29121;BME280;16191;49.548;8.658;2022-10-16T03:03:10;100153.34;;;15.88;100.00
29121;BME280;16191;49.548;8.658;2022-10-16T03:05:36;100154.41;;;15.85;100.00
29121;BME280;16191;49.548;8.658;2022-10-16T03:08:03;100163.88;;;15.88;100.00
29121;BME280;16191;49.548;8.658;2022-10-16T03:10:30;100161.81;;;15.93;100.00
29121;BME280;16191;49.548;8.658;2022-10-16T03:12:57;100163.69;;;15.91;100.00
29121;BME280;16191;49.548;8.658;2022-10-16T03:15:24;100147.16;;;15.89;100.00
29121;BME280;16191;49.548;8.658;2022-10-16T03:17:50;100133.25;;;15.87;100.00
29121;BME280;16191;49.548;8.658;2022-10-16T03:20:17;100134.19;;;15.86;100.00
29121;BME280;16191;49.548;8.658;2022-10-16T03:22:44;100151.88;;;15.84;100.00
29121;BME280;16191;49.548;8.658;2022-10-16T03:25:11;100153.47;;;15.86;100.00
29121;BME280;16191;49.548;8.658;2022-10-16T03:27:37;100143.97;;;15.84;100.00
29121;BME280;16191;49.548;8.658;2022-10-16T03:30:05;100147.34;;;15.86;100.00
29121;BME280;16191;49.548;8.658;2022-10-16T03:32:32;100150.91;;;15.85;100.00
29121;BME280;16191;49.548;8.658;2022-10-16T03:34:58;100154.50;;;15.84;100.00
29121;BME280;16191;49.548;8.658;2022-10-16T03:37:25;100154.50;;;15.84;100.00
29121;BME280;16191;49.548;8.658;2022-10-16T03:39:52;100149.97;;;15.86;100.00
29121;BME280;16191;49.548;8.658;2022-10-16T03:42:19;100149.78;;;15.89;100.00
29121;BME280;16191;49.548;8.658;2022-10-16T03:44:45;100143.78;;;15.87;100.00
29121;BME280;16191;49.548;8.658;2022-10-16T03:47:12;100149.78;;;15.89;100.00
29121;BME280;16191;49.548;8.658;2022-10-16T03:49:39;100148.09;;;15.88;100.00
29121;BME280;16191;49.548;8.658;2022-10-16T03:52:05;100153.34;;;15.88;100.00
29121;BME280;16191;49.548;8.658;2022-10-16T03:54:32;100155.06;;;15.89;100.00
29121;BME280;16191;49.548;8.658;2022-10-16T03:56:59;100162.09;;;15.88;100.00
29121;BME280;16191;49.548;8.658;2022-10-16T03:59:25;100160.03;;;15.93;100.00
29121;BME280;16191;49.548;8.658;2022-10-16T04:01:52;100168.38;;;16.00;100.00
29121;BME280;16191;49.548;8.658;2022-10-16T04:04:18;100169.13;;;16.02;100.00
29121;BME280;16191;49.548;8.658;2022-10-16T04:06:45;100176.28;;;16.00;100.00
29121;BME280;16191;49.548;8.658;2022-10-16T04:09:12;100178.81;;;16.01;100.00
29121;BME280;16191;49.548;8.658;2022-10-16T04:11:38;100176.47;;;15.97;100.00
29121;BME280;16191;49.548;8.658;2022-10-16T04:14:05;100167.81;;;15.95;100.00
29121;BME280;16191;49.548;8.658;2022-10-16T04:16:32;100179.38;;;15.92;100.00
29121;BME280;16191;49.548;8.658;2022-10-16T04:18:58;100177.88;;;15.88;100.00
29121;BME280;16191;49.548;8.658;2022-10-16T04:21:26;100188.22;;;15.91;100.00
29121;BME280;16191;49.548;8.658;2022-10-16T04:23:52;100188.31;;;15.90;100.00
29121;BME280;16191;49.548;8.658;2022-10-16T04:26:19;100185.59;;;15.91;100.00
29121;BME280;16191;49.548;8.658;2022-10-16T04:28:45;100189.25;;;15.89;100.00
29121;BME280;16191;49.548;8.658;2022-10-16T04:31:12;100202.03;;;15.95;100.00
29121;BME280;16191;49.548;8.658;2022-10-16T04:33:42;100210.69;;;15.97;100.00
29121;BME280;16191;49.548;8.658;2022-10-16T04:36:09;100200.34;;;15.94;100.00
29121;BME280;16191;49.548;8.658;2022-10-16T04:38:35;100185.97;;;15.99;100.00
29121;BME280;16191;49.548;8.658;2022-10-16T04:41:04;100180.88;;;15.96;100.00
29121;BME280;16191;49.548;8.658;2022-10-16T04:43:30;100180.78;;;15.98;100.00
29121;BME280;16191;49.548;8.658;2022-10-16T04:45:57;100194.22;;;15.93;100.00
29121;BME280;16191;49.548;8.658;2022-10-16T04:48:24;100204.56;;;15.96;100.00
29121;BME280;16191;49.548;8.658;2022-10-16T04:50:50;100192.34;;;15.95;100.00
29121;BME280;16191;49.548;8.658;2022-10-16T04:53:20;100186.34;;;15.93;100.00
29121;BME280;16191;49.548;8.658;2022-10-16T04:55:47;100191.41;;;15.96;100.00
29121;BME280;16191;49.548;8.658;2022-10-16T04:58:14;100179.28;;;15.94;100.00
29121;BME280;16191;49.548;8.658;2022-10-16T05:00:41;100178.16;;;15.98;100.00
29121;BME280;16191;49.548;8.658;2022-10-16T05:03:08;100191.59;;;15.93;100.00
29121;BME280;16191;49.548;8.658;2022-10-16T05:05:36;100197.63;;;15.95;100.00
29121;BME280;16191;49.548;8.658;2022-10-16T05:08:03;100173.19;;;15.93;100.00
29121;BME280;16191;49.548;8.658;2022-10-16T05:10:30;100173.09;;;15.95;100.00
29121;BME280;16191;49.548;8.658;2022-10-16T05:12:57;100173.94;;;15.95;100.00
29121;BME280;16191;49.548;8.658;2022-10-16T05:15:24;100180.59;;;16.01;100.00
29121;BME280;16191;49.548;8.658;2022-10-16T05:17:55;100186.72;;;16.01;100.00
29121;BME280;16191;49.548;8.658;2022-10-16T05:20:22;100185.22;;;15.97;100.00
29121;BME280;16191;49.548;8.658;2022-10-16T05:22:49;100187.84;;;15.97;100.00
29121;BME280;16191;49.548;8.658;2022-10-16T05:25:16;100179.09;;;15.97;100.00
29121;BME280;16191;49.548;8.658;2022-10-16T05:27:43;100179.28;;;15.94;100.00
29121;BME280;16191;49.548;8.658;2022-10-16T05:30:10;100179.28;;;15.94;100.00
29121;BME280;16191;49.548;8.658;2022-10-16T05:32:38;100173.94;;;15.95;100.00
29121;BME280;16191;49.548;8.658;2022-10-16T05:35:05;100164.16;;;15.97;100.00
29121;BME280;16191;49.548;8.658;2022-10-16T05:37:37;100153.63;;;15.97;100.00
29121;BME280;16191;49.548;8.658;2022-10-16T05:40:04;100157.19;;;15.96;100.00
29121;BME280;16191;49.548;8.658;2022-10-16T05:42:31;100167.22;;;16.04;100.00
29121;BME280;16191;49.548;8.658;2022-10-16T05:44:57;100168.38;;;16.00;100.00
29121;BME280;16191;49.548;8.658;2022-10-16T05:47:24;100167.44;;;16.01;100.00
29121;BME280;16191;49.548;8.658;2022-10-16T05:49:51;100160.47;;;16.00;100.00
29121;BME280;16191;49.548;8.658;2022-10-16T05:52:17;100174.16;;;16.05;100.00
29121;BME280;16191;49.548;8.658;2022-10-16T05:54:44;100181.97;;;16.06;100.00
29121;BME280;16191;49.548;8.658;2022-10-16T05:57:10;100198.69;;;16.20;100.00
29121;BME280;16191;49.548;8.658;2022-10-16T05:59:37;100204.03;;;16.18;100.00
29121;BME280;16191;49.548;8.658;2022-10-16T06:02:04;100212.78;;;16.19;100.00
29121;BME280;16191;49.548;8.658;2022-10-16T06:04:30;100221.00;;;16.27;100.00
29121;BME280;16191;49.548;8.658;2022-10-16T06:07:00;100224.06;;;16.21;100.00
29121;BME280;16191;49.548;8.658;2022-10-16T06:09:27;100209.31;;;16.18;100.00
29121;BME280;16191;49.548;8.658;2022-10-16T06:11:54;100218.16;;;16.17;100.00
29121;BME280;16191;49.548;8.658;2022-10-16T06:14:20;100225.75;;;16.22;100.00
29121;BME280;16191;49.548;8.658;2022-10-16T06:16:47;100228.91;;;16.27;100.00
29121;BME280;16191;49.548;8.658;2022-10-16T06:19:14;100228.16;;;16.25;100.00
29121;BME280;16191;49.548;8.658;2022-10-16T06:21:41;100234.19;;;16.27;100.00
29121;BME280;16191;49.548;8.658;2022-10-16T06:24:07;100238.69;;;16.25;100.00
29121;BME280;16191;49.548;8.658;2022-10-16T06:26:34;100241.31;;;16.25;100.00
29121;BME280;16191;49.548;8.658;2022-10-16T06:29:01;100248.50;;;16.23;100.00
29121;BME280;16191;49.548;8.658;2022-10-16T06:31:28;100250.28;;;16.22;100.00
29121;BME280;16191;49.548;8.658;2022-10-16T06:33:57;100258.81;;;16.26;100.00
29121;BME280;16191;49.548;8.658;2022-10-16T06:36:24;100253.78;;;16.23;100.00
29121;BME280;16191;49.548;8.658;2022-10-16T06:38:52;100256.09;;;16.27;100.00
29121;BME280;16191;49.548;8.658;2022-10-16T06:41:20;100249.34;;;16.23;100.00
29121;BME280;16191;49.548;8.658;2022-10-16T06:43:47;100254.19;;;16.29;100.00
29121;BME280;16191;49.548;8.658;2022-10-16T06:46:17;100253.56;;;16.26;100.00
29121;BME280;16191;49.548;8.658;2022-10-16T06:48:45;100254.72;;;16.22;100.00
29121;BME280;16191;49.548;8.658;2022-10-16T06:51:16;100263.13;;;16.27;100.00
29121;BME280;16191;49.548;8.658;2022-10-16T06:53:46;100263.69;;;16.32;100.00
29121;BME280;16191;49.548;8.658;2022-10-16T06:56:29;100267.47;;;16.28;100.00
29121;BME280;16191;49.548;8.658;2022-10-16T06:58:58;100267.47;;;16.28;100.00
29121;BME280;16191;49.548;8.658;2022-10-16T07:01:26;100272.06;;;16.38;100.00
29121;BME280;16191;49.548;8.658;2022-10-16T07:03:53;100280.72;;;16.40;100.00
29121;BME280;16191;49.548;8.658;2022-10-16T07:06:22;100293.22;;;16.37;100.00
29121;BME280;16191;49.548;8.658;2022-10-16T07:08:49;100288.06;;;16.35;100.00
29121;BME280;16191;49.548;8.658;2022-10-16T07:11:18;100292.47;;;16.35;100.00
29121;BME280;16191;49.548;8.658;2022-10-16T07:13:47;100298.28;;;16.40;100.00
29121;BME280;16191;49.548;8.658;2022-10-16T07:16:25;100304.94;;;16.45;100.00
29121;BME280;16191;49.548;8.658;2022-10-16T07:18:54;100304.41;;;16.40;100.00
29121;BME280;16191;49.548;8.658;2022-10-16T07:21:28;100311.19;;;16.44;100.00
29121;BME280;16191;49.548;8.658;2022-10-16T07:23:57;100310.19;;;16.45;100.00
29121;BME280;16191;49.548;8.658;2022-10-16T07:26:26;100317.81;;;16.50;100.00
29121;BME280;16191;49.548;8.658;2022-10-16T07:28:53;100314.91;;;16.55;100.00
29121;BME280;16191;49.548;8.658;2022-10-16T07:31:20;100321.47;;;16.62;100.00
29121;BME280;16191;49.548;8.658;2022-10-16T07:33:47;100334.56;;;16.63;100.00
29121;BME280;16191;49.548;8.658;2022-10-16T07:36:15;100323.94;;;16.65;100.00
29121;BME280;16191;49.548;8.658;2022-10-16T07:38:43;100333.22;;;16.70;100.00
29121;BME280;16191;49.548;8.658;2022-10-16T07:41:15;100336.22;;;16.78;100.00
29121;BME280;16191;49.548;8.658;2022-10-16T07:43:46;100346.00;;;16.76;100.00
29121;BME280;16191;49.548;8.658;2022-10-16T07:46:14;100347.41;;;16.82;100.00
29121;BME280;16191;49.548;8.658;2022-10-16T07:48:41;100346.56;;;16.82;100.00
29121;BME280;16191;49.548;8.658;2022-10-16T07:51:13;100348.34;;;16.81;100.00
29121;BME280;16191;49.548;8.658;2022-10-16T07:53:40;100358.41;;;16.89;100.00
29121;BME280;16191;49.548;8.658;2022-10-16T07:56:07;100356.91;;;16.85;100.00
29121;BME280;16191;49.548;8.658;2022-10-16T07:58:35;100358.41;;;16.89;100.00
29121;BME280;16191;49.548;8.658;2022-10-16T08:01:07;100360.06;;;16.90;100.00
29121;BME280;16191;49.548;8.658;2022-10-16T08:03:34;100358.72;;;16.97;100.00
29121;BME280;16191;49.548;8.658;2022-10-16T08:06:02;100353.16;;;17.01;100.00
29121;BME280;16191;49.548;8.658;2022-10-16T08:08:29;100362.97;;;16.99;100.00
29121;BME280;16191;49.548;8.658;2022-10-16T08:10:56;100373.59;;;16.98;100.00
29121;BME280;16191;49.548;8.658;2022-10-16T08:13:23;100379.06;;;16.95;100.00
29121;BME280;16191;49.548;8.658;2022-10-16T08:15:50;100383.16;;;16.86;100.00
29121;BME280;16191;49.548;8.658;2022-10-16T08:18:17;100377.16;;;16.84;100.00
29121;BME280;16191;49.548;8.658;2022-10-16T08:20:43;100372.19;;;16.92;100.00
29121;BME280;16191;49.548;8.658;2022-10-16T08:23:12;100365.78;;;16.96;100.00
29121;BME280;16191;49.548;8.658;2022-10-16T08:25:40;100371.91;;;16.97;100.00
29121;BME280;16191;49.548;8.658;2022-10-16T08:28:08;100374.66;;;16.95;100.00
29121;BME280;16191;49.548;8.658;2022-10-16T08:30:35;100384.16;;;16.98;100.00
29121;BME280;16191;49.548;8.658;2022-10-16T08:33:02;100386.50;;;17.02;100.00
29121;BME280;16191;49.548;8.658;2022-10-16T08:35:29;100386.28;;;17.05;100.00
29121;BME280;16191;49.548;8.658;2022-10-16T08:37:55;100387.66;;;17.11;100.00
29121;BME280;16191;49.548;8.658;2022-10-16T08:40:29;100381.34;;;17.13;100.00
29121;BME280;16191;49.548;8.658;2022-10-16T08:48:49;100399.41;;;17.20;100.00
29121;BME280;16191;49.548;8.658;2022-10-16T08:51:26;100416.16;;;17.19;100.00
29121;BME280;16191;49.548;8.658;2022-10-16T08:53:56;100427.97;;;17.13;100.00
29121;BME280;16191;49.548;8.658;2022-10-16T08:56:24;100444.81;;;17.10;100.00
29121;BME280;16191;49.548;8.658;2022-10-16T08:58:52;100464.13;;;17.11;100.00
29121;BME280;16191;49.548;8.658;2022-10-16T09:01:37;100504.00;;;16.92;100.00
29121;BME280;16191;49.548;8.658;2022-10-16T09:07:17;100498.38;;;16.41;100.00
29121;BME280;16191;49.548;8.658;2022-10-16T09:12:35;100495.16;;;16.36;100.00
29121;BME280;16191;49.548;8.658;2022-10-16T09:15:14;100489.53;;;16.42;100.00
29121;BME280;16191;49.548;8.658;2022-10-16T09:21:00;100496.47;;;16.58;100.00
29121;BME280;16191;49.548;8.658;2022-10-16T09:23:32;100501.41;;;16.64;100.00
29121;BME280;16191;49.548;8.658;2022-10-16T09:26:01;100497.53;;;16.69;100.00
29121;BME280;16191;49.548;8.658;2022-10-16T09:28:28;100491.50;;;16.67;100.00
29121;BME280;16191;49.548;8.658;2022-10-16T09:30:54;100486.41;;;16.78;100.00
29121;BME280;16191;49.548;8.658;2022-10-16T09:33:24;100473.13;;;16.94;100.00
29121;BME280;16191;49.548;8.658;2022-10-16T09:35:54;100468.13;;;17.04;100.00
29121;BME280;16191;49.548;8.658;2022-10-16T09:38:33;100465.38;;;17.32;100.00
29121;BME280;16191;49.548;8.658;2022-10-16T09:41:03;100467.41;;;17.41;100.00
29121;BME280;16191;49.548;8.658;2022-10-16T09:43:41;100469.56;;;17.89;100.00
29121;BME280;16191;49.548;8.658;2022-10-16T09:46:26;100466.59;;;18.57;100.00
29121;BME280;16191;49.548;8.658;2022-10-16T09:49:02;100457.66;;;18.59;100.00
29121;BME280;16191;49.548;8.658;2022-10-16T09:51:32;100465.88;;;18.42;100.00
29121;BME280;16191;49.548;8.658;2022-10-16T09:54:01;100465.75;;;18.43;100.00
29121;BME280;16191;49.548;8.658;2022-10-16T09:56:33;100464.19;;;18.54;100.00
29121;BME280;16191;49.548;8.658;2022-10-16T09:59:21;100474.53;;;18.57;100.00
29121;BME280;16191;49.548;8.658;2022-10-16T10:01:54;100480.34;;;18.49;100.00
29121;BME280;16191;49.548;8.658;2022-10-16T10:04:23;100482.03;;;18.50;100.00
29121;BME280;16191;49.548;8.658;2022-10-16T10:06:52;100474.88;;;18.39;100.00
29121;BME280;16191;49.548;8.658;2022-10-16T10:09:26;100482.16;;;18.48;100.00
29121;BME280;16191;49.548;8.658;2022-10-16T10:11:54;100478.81;;;18.59;100.00
29121;BME280;16191;49.548;8.658;2022-10-16T10:22:49;100467.66;;;18.79;100.00
29121;BME280;16191;49.548;8.658;2022-10-16T10:38:44;100477.09;;;19.31;100.00
29121;BME280;16191;49.548;8.658;2022-10-16T10:44:08;100485.09;;;19.42;100.00
29121;BME280;16191;49.548;8.658;2022-10-16T10:49:29;100478.91;;;19.55;100.00
29121;BME280;16191;49.548;8.658;2022-10-16T10:52:12;100483.38;;;19.54;100.00
29121;BME280;16191;49.548;8.658;2022-10-16T10:54:41;100470.88;;;19.91;100.00
29121;BME280;16191;49.548;8.658;2022-10-16T11:03:04;100463.84;;;20.70;100.00
29121;BME280;16191;49.548;8.658;2022-10-16T11:05:51;100455.63;;;20.84;100.00
29121;BME280;16191;49.548;8.658;2022-10-16T11:08:27;100462.34;;;21.10;100.00
29121;BME280;16191;49.548;8.658;2022-10-16T11:11:00;100457.34;;;21.39;100.00
29121;BME280;16191;49.548;8.658;2022-10-16T11:14:03;100458.97;;;21.51;100.00
29121;BME280;16191;49.548;8.658;2022-10-16T11:16:36;100461.34;;;21.86;100.00
29121;BME280;16191;49.548;8.658;2022-10-16T11:19:22;100462.81;;;21.79;100.00
29121;BME280;16191;49.548;8.658;2022-10-16T11:21:59;100469.63;;;22.14;100.00
29121;BME280;16191;49.548;8.658;2022-10-16T11:27:08;100464.91;;;22.17;100.00
29121;BME280;16191;49.548;8.658;2022-10-16T11:29:44;100471.03;;;22.69;100.00
29121;BME280;16191;49.548;8.658;2022-10-16T11:32:23;100467.53;;;22.38;100.00
29121;BME280;16191;49.548;8.658;2022-10-16T11:34:55;100478.22;;;22.48;100.00
29121;BME280;16191;49.548;8.658;2022-10-16T11:37:28;100472.41;;;22.64;100.00
29121;BME280;16191;49.548;8.658;2022-10-16T11:40:05;100471.88;;;22.70;100.00
29121;BME280;16191;49.548;8.658;2022-10-16T11:42:46;100478.81;;;22.51;100.00
29121;BME280;16191;49.548;8.658;2022-10-16T11:45:27;100468.19;;;22.61;100.00
29121;BME280;16191;49.548;8.658;2022-10-16T11:48:08;100465.13;;;22.66;100.00
29121;BME280;16191;49.548;8.658;2022-10-16T11:50:58;100462.13;;;22.80;100.00
29121;BME280;16191;49.548;8.658;2022-10-16T11:53:56;100468.16;;;22.51;100.00
29121;BME280;16191;49.548;8.658;2022-10-16T11:56:26;100465.72;;;23.29;100.00
29121;BME280;16191;49.548;8.658;2022-10-16T11:59:01;100472.72;;;23.10;99.45
29121;BME280;16191;49.548;8.658;2022-10-16T12:01:38;100466.50;;;22.90;100.00
29121;BME280;16191;49.548;8.658;2022-10-16T12:04:28;100465.59;;;22.40;100.00
29121;BME280;16191;49.548;8.658;2022-10-16T12:07:07;100475.31;;;22.30;100.00
29121;BME280;16191;49.548;8.658;2022-10-16T12:09:38;100465.00;;;22.37;100.00
29121;BME280;16191;49.548;8.658;2022-10-16T12:12:24;100459.50;;;22.59;100.00
29121;BME280;16191;49.548;8.658;2022-10-16T12:15:31;100466.81;;;22.67;100.00
29121;BME280;16191;49.548;8.658;2022-10-16T12:18:25;100477.91;;;22.41;100.00
29121;BME280;16191;49.548;8.658;2022-10-16T12:20:59;100473.03;;;22.46;100.00
29121;BME280;16191;49.548;8.658;2022-10-16T12:23:32;100474.59;;;22.49;100.00
29121;BME280;16191;49.548;8.658;2022-10-16T12:26:00;100467.09;;;22.33;100.00
29121;BME280;16191;49.548;8.658;2022-10-16T12:28:32;100471.28;;;22.36;100.00
29121;BME280;16191;49.548;8.658;2022-10-16T12:31:02;100474.50;;;22.30;100.00
29121;BME280;16191;49.548;8.658;2022-10-16T12:33:33;100468.75;;;22.04;100.00
29121;BME280;16191;49.548;8.658;2022-10-16T12:36:03;100457.16;;;22.05;100.00
29121;BME280;16191;49.548;8.658;2022-10-16T12:38:49;100460.03;;;22.22;100.00
29121;BME280;16191;49.548;8.658;2022-10-16T12:41:34;100466.69;;;22.07;100.00
29121;BME280;16191;49.548;8.658;2022-10-16T12:44:02;100456.47;;;22.12;100.00
29121;BME280;16191;49.548;8.658;2022-10-16T12:49:20;100461.06;;;22.10;100.00
29121;BME280;16191;49.548;8.658;2022-10-16T12:51:47;100457.06;;;22.16;100.00
29121;BME280;16191;49.548;8.658;2022-10-16T12:54:29;100459.06;;;22.23;100.00
29121;BME280;16191;49.548;8.658;2022-10-16T12:59:59;100447.94;;;22.39;100.00
29121;BME280;16191;49.548;8.658;2022-10-16T13:02:39;100449.84;;;22.58;100.00
29121;BME280;16191;49.548;8.658;2022-10-16T13:05:38;100448.22;;;22.36;100.00
29121;BME280;16191;49.548;8.658;2022-10-16T13:11:20;100462.28;;;22.57;100.00
29121;BME280;16191;49.548;8.658;2022-10-16T13:26:00;100458.25;;;22.02;100.00
29121;BME280;16191;49.548;8.658;2022-10-16T13:28:34;100466.81;;;22.06;100.00
29121;BME280;16191;49.548;8.658;2022-10-16T13:31:03;100470.69;;;22.02;100.00
29121;BME280;16191;49.548;8.658;2022-10-16T13:33:38;100461.88;;;22.01;100.00
29121;BME280;16191;49.548;8.658;2022-10-16T13:36:52;100468.50;;;21.75;100.00
29121;BME280;16191;49.548;8.658;2022-10-16T13:39:13;100478.28;;;21.53;100.00
29121;BME280;16191;49.548;8.658;2022-10-16T13:41:41;100480.69;;;21.57;100.00
29121;BME280;16191;49.548;8.658;2022-10-16T13:44:19;100481.47;;;21.68;100.00
29121;BME280;16191;49.548;8.658;2022-10-16T13:46:59;100474.34;;;21.69;100.00
29121;BME280;16191;49.548;8.658;2022-10-16T13:49:26;100471.44;;;21.72;100.00
29121;BME280;16191;49.548;8.658;2022-10-16T13:51:59;100466.78;;;21.64;100.00
29121;BME280;16191;49.548;8.658;2022-10-16T13:54:27;100483.88;;;21.71;100.00
29121;BME280;16191;49.548;8.658;2022-10-16T13:56:55;100484.38;;;21.65;100.00
29121;BME280;16191;49.548;8.658;2022-10-16T13:59:36;100482.56;;;21.66;100.00
29121;BME280;16191;49.548;8.658;2022-10-16T14:02:19;100476.81;;;21.61;100.00
29121;BME280;16191;49.548;8.658;2022-10-16T14:04:49;100461.16;;;21.46;100.00
29121;BME280;16191;49.548;8.658;2022-10-16T14:07:28;100465.19;;;21.41;100.00
29121;BME280;16191;49.548;8.658;2022-10-16T14:09:55;100471.09;;;21.33;100.00
29121;BME280;16191;49.548;8.658;2022-10-16T14:12:23;100473.16;;;21.41;100.00
29121;BME280;16191;49.548;8.658;2022-10-16T14:14:55;100473.03;;;21.42;100.00
29121;BME280;16191;49.548;8.658;2022-10-16T14:17:33;100472.63;;;21.47;100.00
29121;BME280;16191;49.548;8.658;2022-10-16T14:20:04;100482.19;;;21.38;100.00
29121;BME280;16191;49.548;8.658;2022-10-16T14:24:59;100473.03;;;21.31;100.00
29121;BME280;16191;49.548;8.658;2022-10-16T14:27:34;100467.84;;;21.30;100.00